createdAt,value
2018-09-21T00:01:37.301Z,13.90
2018-09-21T00:04:13.422Z,7.65
2018-09-21T00:06:42.591Z,10.73
2018-09-21T00:09:12.825Z,10.13
2018-09-21T00:11:42.016Z,9.70
2018-09-21T00:14:11.352Z,10.27
2018-09-21T00:16:40.483Z,9.30
2018-09-21T00:19:09.657Z,11.00
2018-09-21T00:21:38.847Z,15.70
2018-09-21T00:24:07.949Z,9.83
2018-09-21T00:26:38.521Z,8.98
2018-09-21T00:29:08.237Z,13.10
2018-09-21T00:31:37.509Z,10.45
2018-09-21T00:34:07.601Z,11.88
2018-09-21T00:49:32.055Z,10.93
2018-09-21T00:52:01.373Z,9.40
2018-09-21T00:54:30.574Z,9.57
2018-09-21T00:56:59.769Z,8.60
2018-09-21T00:59:29.205Z,9.40
2018-09-21T01:01:58.855Z,9.40
2018-09-21T01:04:32.150Z,8.00
2018-09-21T01:07:01.391Z,8.75
2018-09-21T01:09:30.517Z,6.73
2018-09-21T01:11:59.887Z,6.67
2018-09-21T01:14:29.126Z,8.13
2018-09-21T01:16:58.310Z,10.30
2018-09-21T01:19:27.544Z,6.73
2018-09-21T01:21:56.749Z,6.37
2018-09-21T01:24:26.405Z,7.93
2018-09-21T01:26:55.610Z,11.30
2018-09-21T01:29:24.910Z,8.43
2018-09-21T01:31:54.138Z,11.00
2018-09-21T01:34:23.344Z,8.13
2018-09-21T01:36:52.593Z,7.77
2018-09-21T01:39:21.753Z,9.33
2018-09-21T01:41:50.917Z,7.10
2018-09-21T01:44:20.145Z,10.10
2018-09-21T01:46:49.336Z,8.13
2018-09-21T01:49:19.035Z,9.83
2018-09-21T01:51:49.233Z,9.80
2018-09-21T01:54:19.437Z,10.23
2018-09-21T01:56:48.637Z,14.53
2018-09-21T01:59:18.153Z,8.60
2018-09-21T02:01:47.977Z,7.97
2018-09-21T02:04:17.285Z,9.97
2018-09-21T02:06:46.661Z,8.55
2018-09-21T02:09:16.077Z,9.60
2018-09-21T02:11:45.412Z,10.87
2018-09-21T02:14:14.785Z,12.05
2018-09-21T02:16:44.095Z,11.12
2018-09-21T02:19:13.503Z,11.37
2018-09-21T02:21:42.949Z,9.60
2018-09-21T02:24:12.225Z,9.40
2018-09-21T02:26:41.706Z,12.33
2018-09-21T02:29:10.925Z,14.30
2018-09-21T02:31:40.278Z,10.90
2018-09-21T02:34:09.802Z,9.60
2018-09-21T02:36:39.215Z,15.03
2018-09-21T02:39:09.493Z,7.00
2018-09-21T02:41:39.788Z,6.90
2018-09-21T02:44:09.097Z,6.13
2018-09-21T02:46:38.917Z,6.30
2018-09-21T02:49:08.961Z,7.75
2018-09-21T02:51:39.086Z,9.90
2018-09-21T02:54:09.100Z,5.80
2018-09-21T02:56:39.815Z,6.47
2018-09-21T02:59:09.163Z,6.20
2018-09-21T03:01:39.046Z,7.12
2018-09-21T03:04:09.285Z,11.43
2018-09-21T03:06:39.062Z,9.50
2018-09-21T03:09:10.050Z,9.27
2018-09-21T03:11:45.060Z,8.93
2018-09-21T03:14:14.502Z,8.50
2018-09-21T03:16:43.949Z,7.90
2018-09-21T03:19:13.536Z,7.73
2018-09-21T03:21:44.483Z,8.53
2018-09-21T03:24:14.108Z,10.15
2018-09-21T03:26:43.436Z,11.00
2018-09-21T03:29:12.773Z,9.00
2018-09-21T03:31:42.240Z,10.30
2018-09-21T03:34:11.880Z,8.40
2018-09-21T03:36:41.196Z,7.10
2018-09-21T03:39:11.413Z,7.23
2018-09-21T03:41:40.902Z,6.73
2018-09-21T03:44:10.541Z,7.77
2018-09-21T03:46:40.194Z,6.60
2018-09-21T03:49:09.459Z,7.73
2018-09-21T03:51:39.888Z,7.05
2018-09-21T03:54:09.620Z,10.05
2018-09-21T03:56:39.795Z,10.85
2018-09-21T03:59:09.780Z,13.30
2018-09-21T04:01:39.569Z,9.73
2018-09-21T04:04:09.559Z,13.00
2018-09-21T04:06:39.815Z,12.58
2018-09-21T04:09:10.737Z,18.62
2018-09-21T04:11:40.003Z,10.43
2018-09-21T04:14:09.681Z,10.90
2018-09-21T04:16:40.311Z,11.25
2018-09-21T04:19:10.062Z,11.23
2018-09-21T04:21:40.107Z,9.43
2018-09-21T04:24:09.781Z,11.80
2018-09-21T04:26:39.920Z,11.20
2018-09-21T04:29:09.756Z,9.70
2018-09-21T04:31:40.165Z,9.40
2018-09-21T04:34:10.038Z,9.33
2018-09-21T04:36:40.190Z,9.80
2018-09-21T04:39:11.979Z,10.10
2018-09-21T04:41:41.405Z,14.00
2018-09-21T04:44:10.837Z,12.97
2018-09-21T04:46:40.293Z,10.00
2018-09-21T04:49:11.008Z,10.46
2018-09-21T04:51:40.232Z,14.33
2018-09-21T04:54:12.771Z,10.00
2018-09-21T04:56:42.013Z,10.77
2018-09-21T04:59:11.373Z,16.00
2018-09-21T05:01:40.695Z,16.60
2018-09-21T05:04:09.925Z,11.50
2018-09-21T05:06:39.903Z,19.03
2018-09-21T05:09:10.671Z,24.87
2018-09-21T05:11:40.315Z,13.72
2018-09-21T05:14:10.349Z,16.20
2018-09-21T05:16:40.597Z,12.15
2018-09-21T05:19:10.214Z,13.00
2018-09-21T05:21:40.372Z,13.40
2018-09-21T05:24:10.867Z,16.62
2018-09-21T05:26:40.854Z,14.05
2018-09-21T05:29:10.247Z,12.23
2018-09-21T05:31:40.636Z,13.40
2018-09-21T05:34:10.866Z,11.45
2018-09-21T05:36:41.326Z,9.33
2018-09-21T05:39:15.288Z,9.10
2018-09-21T05:41:44.469Z,8.70
2018-09-21T05:44:13.584Z,9.07
2018-09-21T05:46:42.771Z,7.73
2018-09-21T05:49:11.886Z,7.90
2018-09-21T05:51:41.120Z,9.80
2018-09-21T05:54:10.576Z,8.50
2018-09-21T05:56:41.200Z,11.90
2018-09-21T05:59:10.634Z,9.25
2018-09-21T06:01:40.466Z,11.83
2018-09-21T06:04:10.744Z,10.55
2018-09-21T06:06:41.020Z,9.53
2018-09-21T06:09:12.537Z,10.70
2018-09-21T06:11:42.384Z,9.20
2018-09-21T06:14:12.456Z,11.60
2018-09-21T06:16:41.890Z,9.10
2018-09-21T06:19:11.239Z,14.40
2018-09-21T06:21:41.000Z,10.30
2018-09-21T06:24:11.598Z,19.40
2018-09-21T06:26:41.170Z,14.10
2018-09-21T06:29:11.133Z,16.02
2018-09-21T06:31:41.185Z,12.00
2018-09-21T06:34:11.234Z,10.23
2018-09-21T06:36:40.970Z,12.40
2018-09-21T06:39:12.375Z,12.13
2018-09-21T06:41:41.818Z,13.83
2018-09-21T06:44:11.332Z,14.00
2018-09-21T06:46:40.992Z,17.15
2018-09-21T06:49:11.192Z,13.40
2018-09-21T06:51:46.112Z,16.37
2018-09-21T06:54:15.575Z,17.98
2018-09-21T06:56:45.386Z,15.17
2018-09-21T06:59:14.846Z,18.27
2018-09-21T07:01:44.266Z,19.20
2018-09-21T07:04:13.655Z,16.67
2018-09-21T07:06:43.121Z,17.80
2018-09-21T07:09:14.260Z,18.43
2018-09-21T07:11:43.834Z,14.30
2018-09-21T07:14:13.668Z,16.55
2018-09-21T07:16:44.220Z,15.37
2018-09-21T07:19:13.622Z,12.70
2018-09-21T07:21:43.019Z,21.30
2018-09-21T07:24:18.471Z,15.60
2018-09-21T07:26:47.978Z,15.43
2018-09-21T07:29:17.661Z,14.57
2018-09-21T07:31:51.153Z,16.17
2018-09-21T07:34:20.469Z,12.83
2018-09-21T07:36:49.885Z,12.60
2018-09-21T07:39:19.241Z,11.90
2018-09-21T07:41:48.622Z,13.37
2018-09-21T07:44:18.174Z,11.08
2018-09-21T07:46:47.563Z,13.00
2018-09-21T07:49:16.928Z,14.90
2018-09-21T07:51:46.241Z,12.03
2018-09-21T07:54:15.598Z,17.30
2018-09-21T07:56:45.041Z,16.80
2018-09-21T07:59:14.554Z,11.23
2018-09-21T08:01:43.977Z,15.30
2018-09-21T08:04:13.233Z,9.50
2018-09-21T08:06:42.655Z,9.70
2018-09-21T08:09:12.387Z,11.53
2018-09-21T08:11:41.815Z,9.50
2018-09-21T08:14:11.927Z,11.37
2018-09-21T08:16:41.762Z,8.98
2018-09-21T08:19:11.841Z,10.93
2018-09-21T08:21:41.839Z,11.40
2018-09-21T08:24:11.904Z,12.30
2018-09-21T08:26:42.374Z,9.75
2018-09-21T08:29:11.990Z,12.40
2018-09-21T08:31:41.994Z,9.48
2018-09-21T08:34:12.125Z,9.90
2018-09-21T08:36:42.298Z,11.60
2018-09-21T08:39:12.805Z,10.10
2018-09-21T08:41:42.501Z,10.97
2018-09-21T08:44:12.173Z,16.77
2018-09-21T08:46:42.117Z,12.88
2018-09-21T08:49:11.471Z,11.63
2018-09-21T08:51:40.833Z,12.50
2018-09-21T08:54:10.118Z,7.10
2018-09-21T08:56:39.417Z,7.63
2018-09-21T08:59:08.617Z,6.97
2018-09-21T09:01:37.931Z,8.60
2018-09-21T09:04:07.209Z,6.80
2018-09-21T09:06:36.510Z,7.97
2018-09-21T09:09:08.372Z,9.70
2018-09-21T09:11:38.282Z,6.80
2018-09-21T09:14:07.809Z,11.00
2018-09-21T09:16:37.137Z,9.60
2018-09-21T09:19:06.511Z,7.10
2018-09-21T09:21:36.615Z,7.43
2018-09-21T09:24:05.990Z,6.37
2018-09-21T09:26:35.312Z,11.47
2018-09-21T09:29:04.568Z,9.70
2018-09-21T09:31:34.921Z,8.60
2018-09-21T09:34:04.362Z,11.63
2018-09-21T09:36:33.698Z,6.27
2018-09-21T09:39:03.170Z,7.30
2018-09-21T09:41:32.761Z,7.13
2018-09-21T09:44:02.112Z,8.13
2018-09-21T09:46:32.372Z,6.10
2018-09-21T09:49:01.816Z,7.33
2018-09-21T09:51:31.113Z,7.30
2018-09-21T09:54:00.442Z,6.73
2018-09-21T09:56:30.105Z,5.97
2018-09-21T09:59:00.000Z,8.20
2018-09-21T10:01:29.354Z,8.07
2018-09-21T10:03:58.861Z,6.93
2018-09-21T10:06:28.149Z,8.13
2018-09-21T10:08:57.410Z,9.50
2018-09-21T10:11:26.820Z,5.53
2018-09-21T10:13:56.196Z,9.67
2018-09-21T10:16:25.616Z,5.90
2018-09-21T10:18:54.954Z,6.47
2018-09-21T10:21:24.288Z,10.63
2018-09-21T10:23:53.705Z,7.10
2018-09-21T10:26:23.014Z,8.27
2018-09-21T10:28:52.583Z,10.93
2018-09-21T10:31:21.596Z,8.83
2018-09-21T10:33:51.232Z,5.25
2018-09-21T10:36:20.502Z,7.00
2018-09-21T10:38:49.822Z,6.93
2018-09-21T10:41:19.368Z,5.20
2018-09-21T10:43:48.740Z,5.37
2018-09-21T10:46:19.274Z,5.50
2018-09-21T10:48:48.577Z,8.67
2018-09-21T10:51:17.885Z,9.60
2018-09-21T10:53:48.823Z,5.90
2018-09-21T10:56:18.222Z,6.10
2018-09-21T10:58:47.554Z,5.60
2018-09-21T11:01:17.014Z,5.23
2018-09-21T11:03:46.308Z,8.93
2018-09-21T11:06:15.885Z,4.67
2018-09-21T11:08:45.823Z,5.63
2018-09-21T11:11:15.186Z,8.10
2018-09-21T11:13:44.584Z,4.40
2018-09-21T11:16:13.938Z,5.57
2018-09-21T11:18:43.297Z,4.83
2018-09-21T11:21:14.024Z,5.77
2018-09-21T11:23:43.862Z,5.00
2018-09-21T11:26:13.411Z,6.90
2018-09-21T11:28:43.438Z,10.28
2018-09-21T11:31:13.485Z,5.33
2018-09-21T11:33:43.330Z,5.10
2018-09-21T11:36:13.560Z,4.87
2018-09-21T11:38:43.618Z,7.23
2018-09-21T11:41:13.600Z,5.07
2018-09-21T11:43:43.665Z,5.37
2018-09-21T11:46:13.545Z,4.40
2018-09-21T11:48:43.514Z,8.30
2018-09-21T11:51:13.565Z,6.20
2018-09-21T11:53:43.806Z,5.00
2018-09-21T11:56:13.642Z,6.50
2018-09-21T11:58:43.761Z,5.93
2018-09-21T12:01:13.802Z,6.45
2018-09-21T12:03:45.078Z,7.70
2018-09-21T12:06:14.416Z,4.90
2018-09-21T12:08:43.699Z,8.13
2018-09-21T12:11:14.068Z,6.90
2018-09-21T12:13:43.896Z,6.78
2018-09-21T12:16:13.785Z,5.70
2018-09-21T12:18:43.744Z,5.20
2018-09-21T12:21:13.732Z,5.93
2018-09-21T12:23:43.678Z,8.03
2018-09-21T12:26:13.681Z,7.10
2018-09-21T12:28:43.713Z,6.67
2018-09-21T12:31:14.369Z,8.97
2018-09-21T12:33:43.845Z,6.25
2018-09-21T12:36:13.995Z,11.05
2018-09-21T12:39:15.227Z,13.70
2018-09-21T12:41:44.669Z,7.07
2018-09-21T12:44:15.274Z,7.90
2018-09-21T12:46:44.461Z,6.17
2018-09-21T12:49:14.336Z,6.47
2018-09-21T12:51:44.031Z,6.63
2018-09-21T12:54:13.983Z,11.70
2018-09-21T12:56:44.083Z,8.23
2018-09-21T12:59:14.066Z,5.53
2018-09-21T13:01:44.074Z,6.50
2018-09-21T13:04:14.013Z,5.70
2018-09-21T13:06:44.238Z,5.60
2018-09-21T13:09:14.337Z,5.40
2018-09-21T13:11:44.310Z,5.50
2018-09-21T13:14:14.188Z,6.77
2018-09-21T13:16:44.293Z,8.93
2018-09-21T13:19:14.232Z,10.27
2018-09-21T13:21:44.308Z,11.03
2018-09-21T13:24:14.192Z,8.70
2018-09-21T13:26:44.480Z,6.53
2018-09-21T13:29:14.478Z,4.92
2018-09-21T13:31:44.407Z,5.40
2018-09-21T13:34:14.316Z,5.13
2018-09-21T13:36:44.460Z,5.20
2018-09-21T13:39:14.295Z,8.20
2018-09-21T13:41:44.346Z,8.43
2018-09-21T13:44:14.382Z,5.27
2018-09-21T13:46:44.410Z,6.93
2018-09-21T13:49:14.334Z,5.20
2018-09-21T13:51:44.482Z,5.60
2018-09-21T13:54:14.436Z,4.87
2018-09-21T13:56:44.534Z,5.80
2018-09-21T13:59:14.435Z,6.23
2018-09-21T14:01:44.545Z,9.05
2018-09-21T14:04:14.487Z,6.03
2018-09-21T14:06:44.590Z,4.30
2018-09-21T14:09:14.560Z,4.30
2018-09-21T14:11:44.599Z,11.20
2018-09-21T14:14:14.631Z,5.67
2018-09-21T14:16:44.624Z,5.30
2018-09-21T14:19:14.579Z,7.67
2018-09-21T14:21:44.727Z,6.37
2018-09-21T14:24:14.667Z,4.23
2018-09-21T14:26:44.989Z,4.60
2018-09-21T14:29:14.758Z,5.50
2018-09-21T14:31:44.776Z,5.40
2018-09-21T14:34:14.804Z,7.83
2018-09-21T14:36:44.717Z,6.50
2018-09-21T14:39:14.793Z,6.17
2018-09-21T14:41:44.701Z,6.43
2018-09-21T14:44:14.819Z,5.87
2018-09-21T14:46:44.815Z,6.67
2018-09-21T14:49:14.798Z,7.47
2018-09-21T14:51:44.858Z,7.73
2018-09-21T14:54:14.863Z,7.10
2018-09-21T14:56:45.657Z,7.07
2018-09-21T14:59:14.976Z,5.77
2018-09-21T15:01:44.856Z,4.00
2018-09-21T15:04:14.957Z,4.30
2018-09-21T15:06:44.987Z,6.03
2018-09-21T15:09:14.958Z,6.05
2018-09-21T15:11:44.960Z,9.07
2018-09-21T15:14:14.979Z,8.03
2018-09-21T15:16:45.036Z,10.30
2018-09-21T15:19:15.146Z,5.33
2018-09-21T15:21:45.183Z,7.00
2018-09-21T15:24:15.110Z,5.90
2018-09-21T15:26:45.122Z,5.40
2018-09-21T15:29:15.191Z,6.63
2018-09-21T15:31:45.175Z,5.12
2018-09-21T15:34:15.152Z,5.42
2018-09-21T15:36:45.237Z,5.72
2018-09-21T15:39:15.296Z,4.40
2018-09-21T15:41:45.219Z,6.00
2018-09-21T15:44:15.261Z,9.17
2018-09-21T15:46:45.319Z,5.17
2018-09-21T15:49:15.305Z,3.80
2018-09-21T15:51:45.463Z,5.90
2018-09-21T15:54:15.642Z,5.03
2018-09-21T15:56:45.481Z,6.93
2018-09-21T15:59:15.819Z,5.70
2018-09-21T16:01:45.396Z,7.00
2018-09-21T16:04:15.487Z,7.12
2018-09-21T16:06:45.510Z,6.90
2018-09-21T16:09:15.535Z,10.30
2018-09-21T16:11:45.555Z,5.93
2018-09-21T16:14:15.610Z,6.35
2018-09-21T16:16:45.641Z,4.03
2018-09-21T16:19:15.631Z,8.60
2018-09-21T16:21:45.891Z,6.03
2018-09-21T16:24:15.588Z,3.70
2018-09-21T16:26:45.715Z,6.63
2018-09-21T16:29:15.730Z,6.90
2018-09-21T16:31:45.659Z,11.50
2018-09-21T16:34:15.749Z,12.15
2018-09-21T16:36:45.674Z,8.90
2018-09-21T16:39:15.741Z,9.97
2018-09-21T16:41:45.770Z,17.90
2018-09-21T16:44:15.821Z,16.00
2018-09-21T16:46:45.765Z,10.90
2018-09-21T16:49:15.754Z,6.77
2018-09-21T16:51:45.858Z,6.27
2018-09-21T16:54:15.924Z,10.70
2018-09-21T16:56:45.934Z,11.73
2018-09-21T16:59:15.974Z,11.30
2018-09-21T17:01:45.951Z,6.97
2018-09-21T17:04:16.202Z,12.90
2018-09-21T17:06:48.472Z,18.60
2018-09-21T17:09:18.046Z,9.30
2018-09-21T17:11:47.537Z,9.83
2018-09-21T17:14:16.863Z,8.67
2018-09-21T17:16:46.330Z,7.43
2018-09-21T17:19:16.212Z,9.20
2018-09-21T17:21:46.239Z,4.33
2018-09-21T17:24:16.279Z,5.30
2018-09-21T17:26:46.444Z,5.25
2018-09-21T17:29:16.504Z,9.83
2018-09-21T17:31:46.627Z,5.07
2018-09-21T17:34:16.353Z,6.40
2018-09-21T17:36:47.606Z,6.60
2018-09-21T17:39:17.047Z,4.33
2018-09-21T17:41:46.553Z,14.40
2018-09-21T17:44:16.462Z,10.40
2018-09-21T17:46:46.682Z,7.27
2018-09-21T17:49:16.392Z,5.97
2018-09-21T17:51:46.499Z,5.80
2018-09-21T17:54:16.448Z,6.43
2018-09-21T17:56:46.294Z,4.30
2018-09-21T17:59:16.392Z,5.33
2018-09-21T18:01:47.001Z,5.90
2018-09-21T18:04:16.558Z,5.10
2018-09-21T18:06:46.963Z,5.65
2018-09-21T18:09:16.520Z,5.80
2018-09-21T18:11:46.553Z,10.70
2018-09-21T18:14:16.550Z,9.23
2018-09-21T18:16:46.571Z,6.55
2018-09-21T18:19:17.081Z,5.28
2018-09-21T18:21:46.704Z,11.07
2018-09-21T18:24:16.873Z,11.73
2018-09-21T18:26:46.901Z,5.50
2018-09-21T18:29:17.723Z,6.77
2018-09-21T18:31:47.046Z,7.47
2018-09-21T18:34:16.944Z,6.57
2018-09-21T18:36:46.898Z,5.12
2018-09-21T18:39:16.838Z,5.50
2018-09-21T18:41:47.547Z,6.90
2018-09-21T18:44:17.805Z,5.22
2018-09-21T18:46:47.447Z,8.10
2018-09-21T18:49:17.177Z,7.57
2018-09-21T18:51:47.175Z,11.80
2018-09-21T18:54:17.240Z,7.43
2018-09-21T18:56:47.229Z,6.57
2018-09-21T18:59:17.585Z,5.90
2018-09-21T19:01:47.140Z,5.60
2018-09-21T19:04:17.373Z,4.90
2018-09-21T19:06:47.368Z,6.37
2018-09-21T19:09:17.320Z,6.53
2018-09-21T19:11:47.437Z,5.07
2018-09-21T19:14:17.372Z,3.67
2018-09-21T19:16:47.349Z,4.20
2018-09-21T19:19:17.359Z,2.30
2018-09-21T19:21:47.476Z,1.93
2018-09-21T19:24:17.554Z,1.92
2018-09-21T19:26:48.226Z,1.32
2018-09-21T19:29:17.717Z,1.50
2018-09-21T19:31:47.611Z,1.90
2018-09-21T19:34:17.519Z,2.95
2018-09-21T19:36:47.672Z,2.57
2018-09-21T19:39:17.747Z,1.07
2018-09-21T19:41:47.609Z,2.70
2018-09-21T19:44:17.700Z,3.73
2018-09-21T19:46:47.882Z,6.70
2018-09-21T19:49:17.757Z,1.57
2018-09-21T19:51:47.808Z,2.00
2018-09-21T19:54:17.969Z,2.12
2018-09-21T19:56:47.863Z,2.25
2018-09-21T19:59:17.913Z,2.43
2018-09-21T20:01:47.823Z,2.30
2018-09-21T20:04:17.934Z,7.90
2018-09-21T20:06:47.864Z,2.80
2018-09-21T20:09:17.855Z,4.00
2018-09-21T20:11:47.961Z,3.67
2018-09-21T20:14:17.985Z,4.13
2018-09-21T20:16:48.918Z,3.05
2018-09-21T20:19:18.902Z,2.57
2018-09-21T20:21:48.490Z,5.30
2018-09-21T20:24:17.996Z,3.70
2018-09-21T20:26:48.076Z,3.05
2018-09-21T20:29:17.905Z,3.03
2018-09-21T20:31:53.374Z,2.90
2018-09-21T20:34:22.809Z,2.37
2018-09-21T20:36:52.095Z,5.13
2018-09-21T20:39:21.481Z,2.17
2018-09-21T20:41:50.949Z,4.13
2018-09-21T20:44:20.675Z,5.57
2018-09-21T20:46:49.843Z,3.07
2018-09-21T20:49:19.106Z,3.10
2018-09-21T20:51:48.319Z,3.20
2018-09-21T20:54:18.076Z,5.50
2018-09-21T20:56:48.046Z,5.08
2018-09-21T20:59:18.075Z,7.90
2018-09-21T21:01:48.046Z,2.98
2018-09-21T21:04:18.128Z,3.47
2018-09-21T21:06:48.125Z,4.50
2018-09-21T21:09:18.144Z,2.80
2018-09-21T21:11:48.120Z,4.00
2018-09-21T21:14:18.178Z,2.50
2018-09-21T21:16:48.180Z,2.50
2018-09-21T21:19:18.331Z,6.20
2018-09-21T21:21:48.369Z,3.17
2018-09-21T21:24:18.363Z,5.40
2018-09-21T21:26:48.387Z,3.58
2018-09-21T21:29:18.360Z,2.80
2018-09-21T21:31:48.336Z,3.03
2018-09-21T21:34:18.376Z,4.80
2018-09-21T21:36:48.387Z,4.92
2018-09-21T21:39:18.361Z,3.73
2018-09-21T21:41:48.437Z,3.10
2018-09-21T21:44:18.469Z,5.50
2018-09-21T21:46:48.446Z,6.20
2018-09-21T21:49:18.441Z,4.58
2018-09-21T21:51:48.987Z,5.60
2018-09-21T21:54:18.526Z,5.50
2018-09-21T21:56:48.497Z,3.57
2018-09-21T21:59:18.577Z,5.47
2018-09-21T22:01:49.315Z,4.75
2018-09-21T22:04:19.176Z,3.57
2018-09-21T22:06:48.626Z,4.77
2018-09-21T22:09:18.583Z,4.13
2018-09-21T22:11:54.008Z,5.87
2018-09-21T22:14:23.154Z,6.50
2018-09-21T22:16:52.272Z,5.23
2018-09-21T22:19:21.397Z,6.53
2018-09-21T22:21:50.580Z,5.20
2018-09-21T22:24:19.707Z,5.42
2018-09-21T22:26:48.833Z,6.60
2018-09-21T22:29:18.805Z,6.87
2018-09-21T22:31:48.912Z,5.75
2018-09-21T22:34:18.940Z,6.20
2018-09-21T22:36:48.879Z,5.78
2018-09-21T22:39:18.981Z,7.37
2018-09-21T22:41:48.947Z,6.37
2018-09-21T22:44:19.070Z,3.13
2018-09-21T22:46:49.027Z,5.00
2018-09-21T22:49:21.691Z,7.42
2018-09-21T22:51:52.540Z,8.80
2018-09-21T22:54:21.737Z,7.80
2018-09-21T22:56:50.943Z,4.67
2018-09-21T22:59:20.201Z,4.60
2018-09-21T23:01:49.441Z,5.43
2018-09-21T23:04:19.251Z,6.12
2018-09-21T23:06:49.328Z,5.15
2018-09-21T23:09:19.303Z,7.33
2018-09-21T23:11:49.297Z,5.20
2018-09-21T23:14:19.265Z,7.33
2018-09-21T23:16:49.337Z,3.33
2018-09-21T23:19:19.341Z,5.45
2018-09-21T23:21:49.385Z,10.45
2018-09-21T23:24:19.373Z,4.33
2018-09-21T23:26:49.469Z,3.53
2018-09-21T23:29:19.404Z,6.08
2018-09-21T23:31:49.460Z,6.83
2018-09-21T23:34:19.449Z,5.62
2018-09-21T23:36:49.481Z,5.30
2018-09-21T23:39:19.751Z,3.22
2018-09-21T23:41:49.658Z,4.78
2018-09-21T23:44:19.651Z,4.30
2018-09-21T23:46:49.971Z,6.73
2018-09-21T23:49:19.654Z,7.50
2018-09-21T23:51:49.703Z,6.00
2018-09-21T23:54:20.008Z,7.25
2018-09-21T23:56:50.231Z,5.90
2018-09-21T23:59:19.769Z,5.55
